Terminal Aerodrome Forecast
Issued by NWS

Home | Current Version | Previous Version | Text Only | Print | Product List | Glossary On
Versions: 1 2 3 4 5 6 7 8 9 10 11 12 13 14 15 16 17 18 19
000
FTUS43 KMPX 231126
TAFRNH
TAF
KRNH 231126Z 2312/2412 21011KT P6SM OVC100
     FM231300 23011KT P6SM VCSH BKN050 OVC080
      TEMPO 2314/2317 6SM -FZRAPL
     FM231700 24009KT P6SM SCT030 OVC050
     FM232200 29008KT P6SM OVC020=

USA.gov is the U.S. government's official web portal to all federal, state and local government web resources and services.